KPOU/POU METAR and TAF weather

Enter ICAO airport designator
Station Type Date Time Source
KPOU METAR 2019/10/21 01:53 UTC NOAA

KPOU 210153Z 03003KT 5SM BR FEW004 SCT090 BKN110 11/09 A3002 RMK AO2 RAB42E53 SLP163 P0000 T01060094


Station Type Date Time Source
KPOU Decoded METAR 2019/10/21 01:53 UTC NOAA

POUGHKEEPSIE DUTCHESS CTY, NY, United States (KPOU) 41-38N 073-53W 46M
Oct 20, 2019 - 09:53 PM EDT / 2019.10.21 0153 UTC
Wind: from the NNE (030 degrees) at 3 MPH (3 KT):0
Visibility: 5 mile(s):0
Sky conditions: mostly cloudy
Weather: mist
Precipitation last hour: A trace
Temperature: 51.1 F (10.6 C)
Dew Point: 48.9 F (9.4 C)
Relative Humidity: 92%
Pressure (altimeter): 30.02 in. Hg (1016 hPa)
ob: KPOU 210153Z 03003KT 5SM BR FEW004 SCT090 BKN110 11/09 A3002 RMK AO2 RAB42E53 SLP163 P0000 T01060094
cycle: 2

Station Type Date Time Source
KPOU TAF 2019/10/21 01:12 UTC NOAA

TAF
AMD KPOU 210111Z 2101/2124 00000KT 6SM BR FEW003
TEMPO 2101/2105 1SM BR BKN003
FM210600 VRB03KT 1/4SM FG BKN035
FM210800 01004KT 1/4SM FG SCT003
FM211400 01004KT P6SM FEW008
FM211500 01004KT P6SM FEW250

Example: see airport list